Time;durP1;ratioP1;P1;durP2;ratioP2;P2;SDS_P1;SDS_P2;PMS_P1;PMS_P2;Temp;Humidity;BMP_temperature;BMP_pressure;BME280_temperature;BME280_humidity;BME280_pressure;Samples;Min_cycle;Max_cycle;Signal;HPM_P1;HPM_P2
2024/01/07 00:01:26;;;;;;;0.50;0.50;;;0.30;99.90;;;;;;5070131;28;20251;-80
2024/01/07 00:03:52;;;;;;;0.40;0.40;;;0.30;99.90;;;;;;5048905;28;20597;-81
2024/01/07 00:06:18;;;;;;;0.57;0.57;;;0.30;99.90;;;;;;5051120;28;20580;-81
2024/01/07 00:08:43;;;;;;;0.50;0.50;;;0.30;99.90;;;;;;5047176;28;20515;-81
2024/01/07 00:11:09;;;;;;;0.50;0.50;;;0.30;99.90;;;;;;5068975;28;20245;-81
2024/01/07 00:13:35;;;;;;;0.40;0.40;;;0.30;99.90;;;;;;5063703;28;20232;-81
2024/01/07 00:16:01;;;;;;;0.50;0.50;;;0.30;99.90;;;;;;5069274;28;20186;-81
2024/01/07 00:18:27;;;;;;;0.50;0.50;;;0.20;99.90;;;;;;5070034;28;20421;-81
2024/01/07 00:20:53;;;;;;;0.40;0.40;;;0.30;99.90;;;;;;5067835;28;20444;-81
2024/01/07 00:23:20;;;;;;;0.50;0.50;;;0.30;99.90;;;;;;5067299;28;20448;-81
2024/01/07 00:25:46;;;;;;;0.50;0.50;;;0.30;99.90;;;;;;5069373;28;20502;-81
2024/01/07 00:28:12;;;;;;;0.40;0.40;;;0.20;99.90;;;;;;5069419;28;20437;-80
2024/01/07 00:30:37;;;;;;;0.40;0.40;;;0.30;99.90;;;;;;5068989;28;20536;-81
2024/01/07 00:33:03;;;;;;;0.40;0.40;;;0.20;99.90;;;;;;5064231;28;20219;-80
2024/01/07 00:35:28;;;;;;;0.53;0.53;;;0.30;99.90;;;;;;5051303;28;20298;-81
2024/01/07 00:37:56;;;;;;;0.40;0.40;;;0.30;99.90;;;;;;5051663;28;20235;-81
2024/01/07 00:40:24;;;;;;;0.50;0.50;;;0.30;99.90;;;;;;5068481;28;20653;-80
2024/01/07 00:42:51;;;;;;;0.50;0.50;;;0.20;99.90;;;;;;5048816;28;20467;-81
2024/01/07 00:45:17;;;;;;;0.30;0.30;;;0.30;99.90;;;;;;5051458;28;20428;-80
2024/01/07 00:47:43;;;;;;;0.50;0.50;;;0.30;99.90;;;;;;5069421;28;20531;-81
2024/01/07 00:50:09;;;;;;;0.50;0.50;;;0.30;99.90;;;;;;5051688;28;20511;-81
2024/01/07 00:52:36;;;;;;;0.40;0.40;;;0.30;99.90;;;;;;5068567;28;20225;-81
2024/01/07 00:55:06;;;;;;;0.50;0.50;;;0.30;99.90;;;;;;5069740;28;20174;-81
2024/01/07 00:57:32;;;;;;;0.40;0.40;;;0.30;99.90;;;;;;5067835;28;20456;-80
2024/01/07 00:59:57;;;;;;;0.40;0.40;;;0.30;99.90;;;;;;5067612;28;20416;-80
2024/01/07 01:02:23;;;;;;;0.40;0.40;;;0.30;99.90;;;;;;5069576;28;20920;-79
2024/01/07 01:04:48;;;;;;;0.57;0.57;;;0.20;99.90;;;;;;5049531;28;20178;-80
2024/01/07 01:07:14;;;;;;;0.40;0.40;;;0.20;99.90;;;;;;5069829;28;20714;-79
2024/01/07 01:09:39;;;;;;;0.50;0.50;;;0.30;99.90;;;;;;5063235;28;20669;-80
2024/01/07 01:12:05;;;;;;;0.40;0.40;;;0.30;99.90;;;;;;5069152;28;20571;-80
2024/01/07 01:14:31;;;;;;;0.50;0.50;;;0.30;99.90;;;;;;5067327;28;20193;-80
2024/01/07 01:16:56;;;;;;;0.50;0.50;;;0.30;99.90;;;;;;5068540;28;20204;-80
2024/01/07 01:19:22;;;;;;;0.40;0.40;;;0.30;99.90;;;;;;5068245;28;20233;-80
2024/01/07 01:21:47;;;;;;;0.50;0.50;;;0.30;99.90;;;;;;5073156;28;20668;-80
2024/01/07 01:24:13;;;;;;;0.40;0.40;;;0.30;99.90;;;;;;5073612;28;20186;-80
2024/01/07 01:26:39;;;;;;;0.50;0.50;;;0.30;99.90;;;;;;5072967;28;20193;-80
2024/01/07 01:29:05;;;;;;;0.53;0.53;;;0.30;99.90;;;;;;5070665;28;20239;-80
2024/01/07 01:31:30;;;;;;;0.50;0.50;;;0.20;99.90;;;;;;5069990;28;20449;-80
2024/01/07 01:33:56;;;;;;;0.40;0.40;;;0.30;99.90;;;;;;5073447;28;20185;-80
2024/01/07 01:36:21;;;;;;;0.60;0.60;;;0.30;99.90;;;;;;5073653;28;20174;-80
2024/01/07 01:38:48;;;;;;;0.43;0.43;;;0.20;99.90;;;;;;5072701;28;20665;-80
2024/01/07 01:41:14;;;;;;;0.40;0.40;;;0.20;99.90;;;;;;5073215;28;20649;-80
2024/01/07 01:43:39;;;;;;;0.43;0.43;;;0.20;99.90;;;;;;5054839;28;20486;-80
2024/01/07 01:46:05;;;;;;;0.50;0.50;;;0.20;99.90;;;;;;5073035;28;20428;-80
2024/01/07 01:48:31;;;;;;;0.40;0.40;;;0.20;99.90;;;;;;5070495;28;20182;-80
2024/01/07 01:50:57;;;;;;;0.40;0.40;;;0.20;99.90;;;;;;5072596;28;20186;-80
2024/01/07 01:53:25;;;;;;;0.50;0.50;;;0.20;99.90;;;;;;5073108;28;20210;-80
2024/01/07 01:55:50;;;;;;;0.40;0.40;;;0.10;99.90;;;;;;5073111;28;20424;-80
2024/01/07 01:58:18;;;;;;;0.50;0.50;;;0.10;99.90;;;;;;5054678;28;20497;-80
2024/01/07 02:00:44;;;;;;;0.40;0.40;;;0.10;99.90;;;;;;5071553;28;20996;-80
2024/01/07 02:03:10;;;;;;;0.40;0.40;;;0.10;99.90;;;;;;5072527;28;20518;-80
2024/01/07 02:05:36;;;;;;;0.40;0.40;;;0.10;99.90;;;;;;5070735;28;20477;-81
2024/01/07 02:08:02;;;;;;;0.40;0.40;;;0.20;99.90;;;;;;5062568;28;20558;-80
2024/01/07 02:10:34;;;;;;;0.40;0.40;;;0.10;99.90;;;;;;5068491;28;20707;-80
2024/01/07 02:13:00;;;;;;;0.40;0.40;;;0.10;99.90;;;;;;5063262;28;20605;-80
2024/01/07 02:15:25;;;;;;;0.50;0.50;;;0.10;99.90;;;;;;5072000;28;20424;-80
2024/01/07 02:17:51;;;;;;;0.40;0.40;;;0.10;99.90;;;;;;5071958;28;20443;-80
2024/01/07 02:20:16;;;;;;;0.50;0.50;;;0.10;99.90;;;;;;5072412;28;20561;-80
2024/01/07 02:22:42;;;;;;;0.50;0.50;;;0.10;99.90;;;;;;5050050;28;20186;-80
2024/01/07 02:25:08;;;;;;;0.50;0.50;;;0.10;99.90;;;;;;5072105;28;20174;-80
2024/01/07 02:27:34;;;;;;;0.50;0.50;;;0.10;99.90;;;;;;5072668;28;20195;-80
2024/01/07 02:29:59;;;;;;;0.40;0.40;;;0.00;99.90;;;;;;5071135;28;20416;-80
2024/01/07 02:32:25;;;;;;;0.40;0.40;;;0.10;99.90;;;;;;5053804;28;20216;-80
2024/01/07 02:34:50;;;;;;;0.60;0.60;;;0.10;99.90;;;;;;5052862;28;20245;-80
2024/01/07 02:37:16;;;;;;;0.50;0.50;;;0.10;99.90;;;;;;5069928;28;20177;-80
2024/01/07 02:39:42;;;;;;;0.50;0.50;;;0.10;99.90;;;;;;5062884;28;20334;-81
2024/01/07 02:42:07;;;;;;;0.40;0.40;;;0.10;99.90;;;;;;5059105;28;20185;-80
2024/01/07 02:44:33;;;;;;;0.47;0.47;;;0.10;99.90;;;;;;5071925;28;20193;-80
2024/01/07 02:46:58;;;;;;;0.50;0.50;;;0.10;99.90;;;;;;5068980;28;20224;-79
2024/01/07 02:49:24;;;;;;;0.40;0.40;;;0.10;99.90;;;;;;5054050;28;20253;-80
2024/01/07 02:51:49;;;;;;;0.50;0.50;;;0.00;99.90;;;;;;5070417;28;20218;-80
2024/01/07 02:54:15;;;;;;;0.50;0.50;;;0.00;99.90;;;;;;5070142;28;20182;-80
2024/01/07 02:56:41;;;;;;;0.50;0.50;;;0.00;99.90;;;;;;5045185;28;20576;-80
2024/01/07 02:59:06;;;;;;;0.40;0.40;;;0.00;99.90;;;;;;5053590;28;20174;-80
2024/01/07 03:01:32;;;;;;;0.50;0.50;;;-0.10;99.90;;;;;;5071443;28;21604;-80
2024/01/07 03:03:57;;;;;;;0.50;0.50;;;-0.20;99.90;;;;;;5057881;28;20559;-80
2024/01/07 03:06:27;;;;;;;0.53;0.53;;;-0.10;99.90;;;;;;5058796;28;20184;-80
2024/01/07 03:08:52;;;;;;;0.50;0.50;;;-0.10;99.90;;;;;;5070912;28;20697;-80
2024/01/07 03:11:18;;;;;;;0.40;0.40;;;-0.20;99.90;;;;;;5069166;28;20446;-80
2024/01/07 03:13:43;;;;;;;0.50;0.50;;;-0.20;99.90;;;;;;5071648;28;20221;-80
2024/01/07 03:16:19;;;;;;;0.60;0.60;;;-0.20;99.90;;;;;;5070121;28;20269;-80
2024/01/07 03:18:45;;;;;;;0.60;0.60;;;-0.20;99.90;;;;;;5043595;28;20312;-80
2024/01/07 03:21:17;;;;;;;0.50;0.50;;;-0.20;99.90;;;;;;5061474;28;20446;-80
2024/01/07 03:23:43;;;;;;;0.50;0.50;;;-0.30;99.90;;;;;;5070371;28;20182;-80
2024/01/07 03:26:08;;;;;;;0.50;0.50;;;-0.30;99.90;;;;;;5069333;28;21280;-80
2024/01/07 03:28:34;;;;;;;0.40;0.40;;;-0.20;99.90;;;;;;5059192;28;20194;-80
2024/01/07 03:31:05;;;;;;;0.60;0.60;;;-0.30;99.90;;;;;;5070513;28;20540;-79
2024/01/07 03:33:30;;;;;;;0.60;0.60;;;-0.30;99.90;;;;;;5069930;28;20222;-80
2024/01/07 03:35:56;;;;;;;0.40;0.40;;;-0.30;99.90;;;;;;5071104;28;20436;-79
2024/01/07 03:38:21;;;;;;;0.50;0.50;;;-0.40;99.90;;;;;;5071367;28;20299;-80
2024/01/07 03:40:47;;;;;;;0.50;0.50;;;-0.50;99.90;;;;;;5053749;28;20268;-80
2024/01/07 03:43:12;;;;;;;0.50;0.50;;;-0.40;99.90;;;;;;5067853;28;20170;-80
2024/01/07 03:45:38;;;;;;;0.47;0.47;;;-0.50;99.90;;;;;;5065107;28;20208;-80
2024/01/07 03:48:04;;;;;;;0.50;0.50;;;-0.50;99.90;;;;;;5070502;28;20304;-80
2024/01/07 03:50:29;;;;;;;0.50;0.50;;;-0.50;99.90;;;;;;5070628;28;20189;-80
2024/01/07 03:52:55;;;;;;;0.57;0.57;;;-0.60;99.90;;;;;;5069407;28;20304;-80
2024/01/07 03:55:20;;;;;;;0.50;0.50;;;-0.70;99.90;;;;;;5052585;28;20650;-80
2024/01/07 03:57:46;;;;;;;0.47;0.47;;;-0.80;99.90;;;;;;5070675;28;20189;-80
2024/01/07 04:00:12;;;;;;;0.53;0.53;;;-0.80;99.90;;;;;;5052364;28;20174;-80
2024/01/07 04:02:37;;;;;;;0.50;0.50;;;-0.90;99.90;;;;;;5069446;28;20287;-80
2024/01/07 04:05:04;;;;;;;0.50;0.50;;;-0.90;99.90;;;;;;5067569;28;20455;-80
2024/01/07 04:07:30;;;;;;;0.40;0.40;;;-1.00;99.90;;;;;;5061444;28;20222;-80
2024/01/07 04:09:55;;;;;;;0.60;0.60;;;-1.00;99.90;;;;;;5052950;28;20435;-80
2024/01/07 04:12:21;;;;;;;0.50;0.50;;;-1.00;99.90;;;;;;5050860;28;20217;-80
2024/01/07 04:14:46;;;;;;;0.50;0.50;;;-1.00;99.90;;;;;;5068939;28;20194;-80
2024/01/07 04:17:12;;;;;;;0.70;0.70;;;-0.90;99.90;;;;;;5069291;28;20197;-80
2024/01/07 04:19:38;;;;;;;0.40;0.40;;;-0.90;99.90;;;;;;5052237;28;20202;-80
2024/01/07 04:22:03;;;;;;;0.60;0.60;;;-0.80;99.90;;;;;;5066683;28;20182;-80
2024/01/07 04:24:29;;;;;;;0.50;0.50;;;-0.70;99.90;;;;;;5069294;28;20447;-80
2024/01/07 04:26:54;;;;;;;0.50;0.50;;;-0.70;99.90;;;;;;5051912;28;20189;-80
2024/01/07 04:29:20;;;;;;;0.60;0.60;;;-0.60;99.90;;;;;;5071152;28;20192;-80
2024/01/07 04:31:45;;;;;;;0.50;0.50;;;-0.60;99.90;;;;;;5069737;28;20186;-80
2024/01/07 04:34:11;;;;;;;0.60;0.60;;;-0.60;99.90;;;;;;5068377;28;20272;-80
2024/01/07 04:36:36;;;;;;;0.50;0.50;;;-0.50;99.90;;;;;;5066843;28;20322;-80
2024/01/07 04:39:02;;;;;;;0.43;0.43;;;-0.50;99.90;;;;;;5069016;28;20174;-80
2024/01/07 04:41:28;;;;;;;0.50;0.50;;;-0.50;99.90;;;;;;5069925;28;20270;-80
2024/01/07 04:43:53;;;;;;;0.40;0.40;;;-0.50;99.90;;;;;;5068688;28;20658;-80
2024/01/07 04:46:19;;;;;;;0.50;0.50;;;-0.50;99.90;;;;;;5066807;28;21643;-80
2024/01/07 04:48:44;;;;;;;0.60;0.60;;;-0.50;99.90;;;;;;5070151;28;20596;-80
2024/01/07 04:51:09;;;;;;;0.40;0.40;;;-0.40;99.90;;;;;;5068762;28;20193;-80
2024/01/07 04:53:36;;;;;;;0.40;0.40;;;-0.40;99.90;;;;;;5060777;28;20305;-80
2024/01/07 04:56:02;;;;;;;0.50;0.50;;;-0.50;99.90;;;;;;5056292;28;20236;-80
2024/01/07 04:58:28;;;;;;;0.50;0.50;;;-0.50;99.90;;;;;;5069967;28;20447;-80
2024/01/07 05:00:53;;;;;;;0.57;0.57;;;-0.50;99.90;;;;;;5051108;28;20951;-80
2024/01/07 05:03:19;;;;;;;0.60;0.60;;;-0.50;99.90;;;;;;5061491;28;20651;-80
2024/01/07 05:05:44;;;;;;;0.50;0.50;;;-0.50;99.90;;;;;;5069551;28;20235;-80
2024/01/07 05:08:10;;;;;;;0.50;0.50;;;-0.50;99.90;;;;;;5069619;28;20229;-80
2024/01/07 05:10:35;;;;;;;0.40;0.40;;;-0.60;99.90;;;;;;5069700;28;20178;-81
2024/01/07 05:13:04;;;;;;;0.70;0.70;;;-0.60;99.90;;;;;;5063698;28;20217;-80
2024/01/07 05:15:30;;;;;;;0.43;0.43;;;-0.60;99.90;;;;;;5069852;28;20227;-80
2024/01/07 05:17:56;;;;;;;0.53;0.53;;;-0.70;99.90;;;;;;5068449;28;20436;-81
2024/01/07 05:20:21;;;;;;;0.50;0.50;;;-0.70;99.90;;;;;;5069846;28;20239;-81
2024/01/07 05:22:47;;;;;;;0.50;0.50;;;-0.70;99.90;;;;;;5068357;28;20275;-81
2024/01/07 05:25:12;;;;;;;0.50;0.50;;;-0.80;99.90;;;;;;5052939;28;20183;-80
2024/01/07 05:27:38;;;;;;;0.40;0.40;;;-0.80;99.90;;;;;;5069041;28;20194;-80
2024/01/07 05:30:04;;;;;;;0.47;0.47;;;-0.80;99.90;;;;;;5069420;28;20781;-80
2024/01/07 05:32:29;;;;;;;0.40;0.40;;;-0.80;99.90;;;;;;5068817;28;20300;-80
2024/01/07 05:34:55;;;;;;;0.60;0.60;;;-0.90;99.90;;;;;;5068996;28;20511;-80
2024/01/07 05:37:20;;;;;;;0.67;0.67;;;-1.00;99.90;;;;;;5055734;28;20186;-80
2024/01/07 05:39:47;;;;;;;0.57;0.57;;;-1.00;99.90;;;;;;5069353;28;20190;-80
2024/01/07 05:42:12;;;;;;;0.60;0.60;;;-1.10;99.90;;;;;;5066864;28;20177;-80
2024/01/07 05:44:38;;;;;;;0.47;0.47;;;-1.10;99.90;;;;;;5051186;28;20436;-80
2024/01/07 05:47:04;;;;;;;0.60;0.60;;;-1.10;99.90;;;;;;5049852;28;20186;-81
2024/01/07 05:49:29;;;;;;;0.50;0.50;;;-1.10;99.90;;;;;;5068154;28;20213;-80
2024/01/07 05:51:55;;;;;;;0.60;0.60;;;-1.10;99.90;;;;;;5064686;28;20412;-80
2024/01/07 05:54:20;;;;;;;0.60;0.60;;;-1.10;99.90;;;;;;5062561;28;20183;-80
2024/01/07 05:56:46;;;;;;;0.40;0.40;;;-1.20;99.90;;;;;;5065820;28;20229;-81
2024/01/07 05:59:12;;;;;;;0.70;0.70;;;-1.10;99.90;;;;;;5047071;28;20190;-80
2024/01/07 06:01:38;;;;;;;0.50;0.50;;;-1.20;99.90;;;;;;5043084;28;20175;-80
2024/01/07 06:04:03;;;;;;;0.60;0.60;;;-1.20;99.90;;;;;;5063796;28;20439;-80
2024/01/07 06:06:29;;;;;;;0.53;0.53;;;-1.20;99.90;;;;;;5071657;28;20182;-80
2024/01/07 06:08:54;;;;;;;0.60;0.60;;;-1.30;99.90;;;;;;5069148;28;20569;-80
2024/01/07 06:11:20;;;;;;;0.50;0.50;;;-1.30;99.90;;;;;;5051384;28;20236;-80
2024/01/07 06:13:46;;;;;;;0.50;0.50;;;-1.30;99.90;;;;;;5069516;28;20242;-80
2024/01/07 06:16:12;;;;;;;0.60;0.60;;;-1.30;99.90;;;;;;5070590;28;20182;-80
2024/01/07 06:18:37;;;;;;;0.50;0.50;;;-1.30;99.90;;;;;;5054366;28;20442;-80
2024/01/07 06:21:03;;;;;;;0.60;0.60;;;-1.30;99.90;;;;;;5052141;28;20178;-80
2024/01/07 06:23:29;;;;;;;0.70;0.70;;;-1.30;99.90;;;;;;5072369;28;20190;-80
2024/01/07 06:25:54;;;;;;;0.60;0.60;;;-1.40;99.90;;;;;;5068820;28;20235;-80
2024/01/07 06:28:20;;;;;;;0.60;0.60;;;-1.40;99.90;;;;;;5072122;28;20190;-80
2024/01/07 06:30:46;;;;;;;0.60;0.60;;;-1.40;99.90;;;;;;5050655;28;20212;-81
2024/01/07 06:33:12;;;;;;;0.60;0.60;;;-1.40;99.90;;;;;;5069530;28;20515;-80
2024/01/07 06:35:38;;;;;;;0.63;0.63;;;-1.30;99.90;;;;;;5070000;28;20174;-80
2024/01/07 06:38:04;;;;;;;0.70;0.70;;;-1.40;99.90;;;;;;5072118;28;20505;-80
2024/01/07 06:40:29;;;;;;;0.60;0.60;;;-1.40;99.90;;;;;;5072147;28;20182;-81
2024/01/07 06:42:56;;;;;;;0.47;0.47;;;-1.40;99.90;;;;;;5071994;28;20647;-80
2024/01/07 06:45:21;;;;;;;0.50;0.50;;;-1.40;99.90;;;;;;5054018;28;20379;-80
2024/01/07 06:47:47;;;;;;;0.50;0.50;;;-1.40;99.90;;;;;;5072254;28;20904;-80
2024/01/07 06:50:13;;;;;;;0.40;0.40;;;-1.30;99.90;;;;;;5064377;28;20247;-80
2024/01/07 06:52:38;;;;;;;0.50;0.50;;;-1.30;99.90;;;;;;5064173;28;20206;-81
2024/01/07 06:55:04;;;;;;;0.50;0.50;;;-1.30;99.90;;;;;;5070401;28;20186;-81
2024/01/07 06:57:30;;;;;;;0.60;0.60;;;-1.30;99.90;;;;;;5070081;28;20410;-80
2024/01/07 06:59:55;;;;;;;0.57;0.57;;;-1.40;99.90;;;;;;5070872;28;20182;-81
2024/01/07 07:02:21;;;;;;;0.60;0.60;;;-1.30;99.90;;;;;;5069826;28;20193;-81
2024/01/07 07:04:47;;;;;;;0.57;0.57;;;-1.40;99.90;;;;;;5067715;28;20197;-81
2024/01/07 07:07:13;;;;;;;0.50;0.50;;;-1.40;99.90;;;;;;5056456;28;20449;-81
2024/01/07 07:09:38;;;;;;;0.60;0.60;;;-1.40;99.90;;;;;;5070226;28;20971;-81
2024/01/07 07:12:05;;;;;;;0.60;0.60;;;-1.40;99.90;;;;;;5070207;28;20213;-80
2024/01/07 07:14:31;;;;;;;0.60;0.60;;;-1.40;99.90;;;;;;5072035;28;20188;-80
2024/01/07 07:16:56;;;;;;;0.67;0.67;;;-1.40;99.90;;;;;;5071455;28;20416;-80
2024/01/07 07:19:22;;;;;;;0.60;0.60;;;-1.40;99.90;;;;;;5071638;28;20190;-80
2024/01/07 07:21:47;;;;;;;0.40;0.40;;;-1.40;99.90;;;;;;5069944;28;20202;-80
2024/01/07 07:24:13;;;;;;;0.60;0.60;;;-1.40;99.90;;;;;;5068831;28;20661;-80
2024/01/07 07:26:40;;;;;;;0.60;0.60;;;-1.40;99.90;;;;;;5071240;28;20177;-80
2024/01/07 07:29:09;;;;;;;0.60;0.60;;;-1.50;99.90;;;;;;5059474;28;20190;-79
2024/01/07 07:31:35;;;;;;;0.60;0.60;;;-1.50;99.90;;;;;;5070721;28;20465;-79
2024/01/07 07:34:00;;;;;;;0.60;0.60;;;-1.50;99.90;;;;;;5045560;28;20888;-81
2024/01/07 07:36:26;;;;;;;0.60;0.60;;;-1.60;99.90;;;;;;5069549;28;20197;-80
2024/01/07 07:38:51;;;;;;;0.60;0.60;;;-1.60;99.90;;;;;;5046840;28;20619;-79
2024/01/07 07:41:17;;;;;;;0.60;0.60;;;-1.70;99.90;;;;;;5052076;28;20174;-80
2024/01/07 07:43:42;;;;;;;0.70;0.70;;;-1.60;99.90;;;;;;5065708;28;20195;-79
2024/01/07 07:46:08;;;;;;;0.53;0.53;;;-1.60;99.90;;;;;;5070960;28;20186;-79
2024/01/07 07:48:33;;;;;;;0.60;0.60;;;-1.60;99.90;;;;;;5061481;28;20210;-79
2024/01/07 07:50:59;;;;;;;0.53;0.53;;;-1.60;99.90;;;;;;5071262;28;20242;-79
2024/01/07 07:53:24;;;;;;;0.70;0.70;;;-1.70;99.90;;;;;;5070842;28;20233;-79
2024/01/07 07:55:50;;;;;;;0.60;0.60;;;-1.80;99.90;;;;;;5067857;28;20189;-80
2024/01/07 07:58:16;;;;;;;0.63;0.63;;;-1.80;99.90;;;;;;5051325;28;20182;-80
2024/01/07 08:00:41;;;;;;;0.60;0.60;;;-1.80;99.90;;;;;;5067977;28;20171;-79
2024/01/07 08:03:07;;;;;;;0.40;0.40;;;-1.70;99.90;;;;;;5067531;28;20187;-79
2024/01/07 08:05:32;;;;;;;0.53;0.53;;;-1.70;99.90;;;;;;5071305;28;20577;-79
2024/01/07 08:07:58;;;;;;;0.50;0.50;;;-1.60;99.90;;;;;;5053004;28;20229;-79
2024/01/07 08:10:23;;;;;;;0.50;0.50;;;-1.50;99.90;;;;;;5050869;28;20293;-79
2024/01/07 08:12:49;;;;;;;0.50;0.50;;;-1.50;99.90;;;;;;5066818;28;20206;-79
2024/01/07 08:15:15;;;;;;;0.60;0.60;;;-1.50;99.90;;;;;;5069589;28;20197;-79
2024/01/07 08:17:42;;;;;;;0.50;0.50;;;-1.40;99.90;;;;;;5063420;28;20551;-79
2024/01/07 08:20:08;;;;;;;0.53;0.53;;;-1.40;99.90;;;;;;5070834;28;20424;-80
2024/01/07 08:22:34;;;;;;;0.50;0.50;;;-1.30;99.90;;;;;;5058928;28;20443;-79
2024/01/07 08:24:59;;;;;;;0.50;0.50;;;-1.30;99.90;;;;;;5068917;28;20428;-79
2024/01/07 08:27:25;;;;;;;0.60;0.60;;;-1.20;99.90;;;;;;5070355;28;20441;-79
2024/01/07 08:29:50;;;;;;;0.60;0.60;;;-1.20;99.90;;;;;;5070012;28;20257;-79
2024/01/07 08:32:16;;;;;;;0.60;0.60;;;-1.30;99.90;;;;;;5061772;28;20214;-79
2024/01/07 08:34:41;;;;;;;0.50;0.50;;;-1.20;99.90;;;;;;5065571;28;20182;-79
2024/01/07 08:37:09;;;;;;;0.43;0.43;;;-1.20;99.90;;;;;;5070159;28;20213;-79
2024/01/07 08:39:34;;;;;;;0.60;0.60;;;-1.20;99.90;;;;;;5067938;28;20189;-79
2024/01/07 08:42:00;;;;;;;0.57;0.57;;;-1.20;99.90;;;;;;5066970;28;20440;-80
2024/01/07 08:44:25;;;;;;;0.50;0.50;;;-1.20;99.90;;;;;;5059902;28;20503;-80
2024/01/07 08:46:51;;;;;;;0.50;0.50;;;-1.00;99.90;;;;;;5063751;28;20603;-80
2024/01/07 08:49:16;;;;;;;0.40;0.40;;;-1.00;99.90;;;;;;5067014;28;20950;-79
2024/01/07 08:51:42;;;;;;;0.60;0.60;;;-0.90;99.90;;;;;;5040728;28;20198;-80
2024/01/07 08:54:07;;;;;;;0.60;0.60;;;-0.70;99.90;;;;;;5062976;28;20223;-80
2024/01/07 08:56:33;;;;;;;0.40;0.40;;;-0.60;99.90;;;;;;5052314;28;20182;-80
2024/01/07 08:58:59;;;;;;;0.50;0.50;;;-0.70;99.90;;;;;;5056996;28;20218;-81
2024/01/07 09:01:24;;;;;;;0.50;0.50;;;-0.50;99.90;;;;;;5048086;28;20649;-80
2024/01/07 09:03:50;;;;;;;0.30;0.30;;;-0.50;99.90;;;;;;5059837;28;20495;-80
2024/01/07 09:06:15;;;;;;;0.50;0.50;;;-0.40;99.90;;;;;;5067355;28;20186;-80
2024/01/07 09:08:42;;;;;;;0.53;0.53;;;-0.20;99.90;;;;;;5069582;28;20214;-80
2024/01/07 09:11:10;;;;;;;0.30;0.30;;;-0.10;99.90;;;;;;5069928;28;20205;-80
2024/01/07 09:13:36;;;;;;;0.40;0.40;;;-0.10;99.90;;;;;;5069399;28;20536;-79
2024/01/07 09:16:02;;;;;;;0.50;0.50;;;0.20;99.90;;;;;;5068285;28;20424;-80
2024/01/07 09:18:28;;;;;;;0.50;0.50;;;0.50;99.90;;;;;;5063343;28;20425;-80
2024/01/07 09:20:53;;;;;;;0.40;0.40;;;0.50;99.90;;;;;;5065809;28;20185;-80
2024/01/07 09:23:19;;;;;;;0.40;0.40;;;0.70;99.90;;;;;;5061847;28;20189;-81
2024/01/07 09:25:46;;;;;;;0.40;0.40;;;0.70;99.90;;;;;;5052504;28;20189;-80
2024/01/07 09:28:14;;;;;;;0.40;0.40;;;0.60;99.90;;;;;;5070169;28;20174;-81
2024/01/07 09:30:40;;;;;;;0.40;0.40;;;0.60;99.90;;;;;;5067173;28;20709;-80
2024/01/07 09:33:05;;;;;;;0.50;0.50;;;0.80;99.90;;;;;;5069701;28;20622;-80
2024/01/07 09:35:31;;;;;;;0.50;0.50;;;0.60;99.90;;;;;;5049700;28;20281;-80
2024/01/07 09:37:56;;;;;;;0.50;0.50;;;0.30;99.90;;;;;;5056657;28;20191;-80
2024/01/07 09:40:22;;;;;;;0.40;0.40;;;0.30;99.90;;;;;;5072031;28;20291;-81
2024/01/07 09:42:48;;;;;;;0.50;0.50;;;0.60;99.90;;;;;;5071942;28;20190;-81
2024/01/07 09:45:14;;;;;;;0.50;0.50;;;0.30;99.90;;;;;;5073284;28;20174;-81
2024/01/07 09:47:43;;;;;;;0.40;0.40;;;0.70;99.90;;;;;;5073950;28;20518;-81
2024/01/07 09:50:09;;;;;;;0.40;0.40;;;0.70;99.90;;;;;;5074147;28;20420;-81
2024/01/07 09:52:35;;;;;;;0.40;0.40;;;0.80;99.90;;;;;;5055511;28;20472;-80
2024/01/07 09:55:03;;;;;;;0.40;0.40;;;0.90;99.90;;;;;;5053313;28;20540;-79
2024/01/07 09:57:29;;;;;;;0.40;0.40;;;0.90;99.90;;;;;;5048993;28;20237;-80
2024/01/07 09:59:55;;;;;;;0.40;0.40;;;1.20;99.90;;;;;;5062021;28;20528;-81
2024/01/07 10:02:22;;;;;;;0.40;0.40;;;1.40;99.90;;;;;;5073514;28;20444;-80
2024/01/07 10:04:49;;;;;;;0.30;0.30;;;1.60;99.90;;;;;;5072902;28;20227;-79
2024/01/07 10:07:15;;;;;;;0.47;0.47;;;1.40;99.90;;;;;;5064394;28;20480;-80
2024/01/07 10:09:44;;;;;;;0.30;0.30;;;1.00;99.90;;;;;;5071477;28;20420;-80
2024/01/07 10:12:10;;;;;;;0.30;0.30;;;0.70;99.90;;;;;;5072916;28;20470;-80
2024/01/07 10:14:35;;;;;;;0.50;0.50;;;0.50;99.90;;;;;;5071209;28;20432;-79
2024/01/07 10:17:01;;;;;;;0.50;0.50;;;0.40;99.90;;;;;;5072860;28;20196;-80
2024/01/07 10:19:26;;;;;;;0.43;0.43;;;0.40;99.90;;;;;;5072485;28;20190;-79
2024/01/07 10:22:05;;;;;;;0.47;0.47;;;0.50;99.90;;;;;;5072908;28;20182;-80
2024/01/07 10:24:39;;;;;;;0.40;0.40;;;0.00;99.90;;;;;;5064410;28;20654;-80
2024/01/07 10:27:06;;;;;;;0.40;0.40;;;-0.10;99.90;;;;;;5072520;28;20868;-79
2024/01/07 10:29:32;;;;;;;0.50;0.50;;;-0.30;99.90;;;;;;5052213;28;20542;-79
2024/01/07 10:32:03;;;;;;;0.50;0.50;;;-0.60;99.90;;;;;;5071435;28;20790;-79
2024/01/07 10:34:31;;;;;;;0.50;0.50;;;-0.50;99.90;;;;;;5067634;28;20432;-79
2024/01/07 10:36:59;;;;;;;0.50;0.50;;;-0.60;99.90;;;;;;5072736;28;20420;-79
2024/01/07 10:39:24;;;;;;;0.60;0.60;;;-0.90;99.90;;;;;;5066115;28;21046;-79
2024/01/07 10:41:53;;;;;;;0.40;0.40;;;-0.90;99.90;;;;;;5069876;28;20947;-79
2024/01/07 10:44:19;;;;;;;0.50;0.50;;;-0.80;99.90;;;;;;5065269;28;20194;-79
2024/01/07 10:46:46;;;;;;;0.60;0.60;;;-0.90;99.90;;;;;;5049100;28;20974;-79
2024/01/07 10:49:21;;;;;;;0.60;0.60;;;-0.90;99.90;;;;;;5052705;28;20658;-80
2024/01/07 10:52:06;;;;;;;0.50;0.50;;;-1.10;99.90;;;;;;5068202;28;20420;-79
2024/01/07 10:54:33;;;;;;;0.50;0.50;;;-0.50;99.90;;;;;;5069752;28;20448;-79
2024/01/07 10:57:24;;;;;;;0.40;0.40;;;0.20;99.90;;;;;;5068790;28;20443;-80
2024/01/07 10:59:51;;;;;;;0.50;0.50;;;0.60;99.90;;;;;;5064298;28;20416;-80
2024/01/07 11:02:17;;;;;;;0.50;0.50;;;1.00;99.90;;;;;;5072112;28;20507;-79
2024/01/07 11:05:11;;;;;;;0.40;0.40;;;1.50;99.90;;;;;;5071375;28;20413;-80
2024/01/07 11:07:46;;;;;;;0.50;0.50;;;1.70;99.90;;;;;;5067449;28;20463;-80
2024/01/07 11:10:20;;;;;;;0.37;0.37;;;1.60;99.90;;;;;;5064586;28;20562;-79
2024/01/07 11:12:58;;;;;;;0.40;0.40;;;1.40;99.90;;;;;;5068567;28;20476;-80
2024/01/07 11:15:48;;;;;;;0.40;0.40;;;1.50;99.90;;;;;;5067217;28;20428;-80
2024/01/07 11:18:23;;;;;;;0.30;0.30;;;1.10;99.90;;;;;;5072046;28;20412;-81
2024/01/07 11:20:49;;;;;;;0.30;0.30;;;1.20;99.90;;;;;;5071542;28;20428;-81
2024/01/07 11:23:39;;;;;;;0.40;0.40;;;0.90;99.90;;;;;;5048625;28;20448;-81
2024/01/07 11:26:05;;;;;;;0.33;0.33;;;1.00;99.90;;;;;;5068927;28;20478;-80
2024/01/07 11:28:49;;;;;;;0.40;0.40;;;0.80;99.90;;;;;;5050671;28;20434;-81
2024/01/07 11:31:16;;;;;;;0.30;0.30;;;1.10;99.90;;;;;;5053613;28;20424;-80
2024/01/07 11:33:47;;;;;;;0.30;0.30;;;1.10;99.90;;;;;;5071341;28;20484;-81
2024/01/07 11:36:14;;;;;;;0.50;0.50;;;1.30;99.90;;;;;;5044712;28;20424;-81
2024/01/07 11:38:49;;;;;;;0.30;0.30;;;1.50;99.90;;;;;;5062668;28;21023;-82
2024/01/07 11:41:17;;;;;;;0.30;0.30;;;1.50;99.90;;;;;;5069974;28;20416;-81
2024/01/07 11:43:55;;;;;;;0.30;0.30;;;1.50;99.90;;;;;;5071247;28;20424;-81
2024/01/07 11:46:25;;;;;;;0.30;0.30;;;1.60;99.90;;;;;;5064574;28;20436;-81
2024/01/07 11:48:53;;;;;;;0.30;0.30;;;1.60;99.90;;;;;;5065527;28;20452;-81
2024/01/07 11:51:19;;;;;;;0.30;0.30;;;1.00;99.90;;;;;;5048190;28;20432;-81
2024/01/07 11:53:48;;;;;;;0.30;0.30;;;1.40;99.90;;;;;;5060829;28;20996;-80
2024/01/07 11:56:13;;;;;;;0.30;0.30;;;1.50;99.90;;;;;;5058677;28;21609;-80
2024/01/07 11:58:41;;;;;;;0.30;0.30;;;1.70;99.90;;;;;;5060676;28;20457;-80
2024/01/07 12:01:06;;;;;;;0.30;0.30;;;1.80;99.90;;;;;;5059461;28;20277;-80
2024/01/07 12:03:32;;;;;;;0.30;0.30;;;1.70;99.90;;;;;;5045438;28;20436;-81
2024/01/07 12:05:57;;;;;;;0.30;0.30;;;2.10;99.90;;;;;;5067854;28;20197;-80
2024/01/07 12:08:23;;;;;;;0.30;0.30;;;2.00;99.90;;;;;;5049227;28;20291;-81
2024/01/07 12:10:49;;;;;;;0.30;0.30;;;2.10;99.90;;;;;;5051164;28;20178;-81
2024/01/07 12:13:15;;;;;;;0.20;0.20;;;1.70;99.90;;;;;;5051492;28;20620;-80
2024/01/07 12:15:41;;;;;;;0.30;0.30;;;1.80;99.90;;;;;;5052091;28;20426;-80
2024/01/07 12:18:06;;;;;;;0.27;0.27;;;1.90;99.90;;;;;;5052494;28;20428;-80
2024/01/07 12:20:32;;;;;;;0.20;0.20;;;2.30;99.90;;;;;;5053315;28;20227;-79
2024/01/07 12:23:08;;;;;;;0.20;0.20;;;2.50;99.90;;;;;;5069844;28;20680;-81
2024/01/07 12:25:33;;;;;;;0.30;0.30;;;2.80;99.90;;;;;;5050615;28;20661;-81
2024/01/07 12:27:59;;;;;;;0.20;0.20;;;3.20;99.90;;;;;;5070362;28;20428;-81
2024/01/07 12:30:25;;;;;;;0.20;0.20;;;3.40;99.90;;;;;;5066442;28;20285;-81
2024/01/07 12:32:53;;;;;;;0.20;0.20;;;3.50;99.90;;;;;;5071077;28;20566;-81
2024/01/07 12:35:19;;;;;;;0.20;0.20;;;2.90;99.90;;;;;;5068675;28;20182;-81
2024/01/07 12:37:44;;;;;;;0.20;0.20;;;1.90;99.90;;;;;;5069042;28;20435;-80
2024/01/07 12:40:11;;;;;;;0.30;0.30;;;1.30;99.90;;;;;;5070269;28;20265;-80
2024/01/07 12:42:40;;;;;;;0.30;0.30;;;0.80;99.90;;;;;;5068110;28;20205;-80
2024/01/07 12:45:06;;;;;;;0.40;0.40;;;0.40;99.90;;;;;;5067598;28;20416;-81
2024/01/07 12:47:31;;;;;;;0.40;0.40;;;0.10;99.90;;;;;;5066666;28;20502;-80